Time;durP1;ratioP1;P1;durP2;ratioP2;P2;SDS_P1;SDS_P2;PMS_P1;PMS_P2;Temp;Humidity;BMP_temperature;BMP_pressure;BME280_temperature;BME280_humidity;BME280_pressure;Samples;Min_cycle;Max_cycle;Signal;HPM_P1;HPM_P2
2021/08/12 00:00:26;;;;;;;;;;;24.40;70.60;;;;;;5230189;28;19956;-91
2021/08/12 00:02:58;;;;;;;;;;;24.40;70.50;;;;;;5189657;28;19936;-89
2021/08/12 00:05:31;;;;;;;;;;;24.40;70.50;;;;;;5248391;28;19925;-89
2021/08/12 00:08:04;;;;;;;;;;;24.30;70.50;;;;;;5212876;28;19925;-90
2021/08/12 00:10:36;;;;;;;;;;;24.30;70.50;;;;;;5228102;28;20341;-89
2021/08/12 00:13:09;;;;;;;;;;;24.30;70.40;;;;;;5229692;28;21711;-88
2021/08/12 00:15:41;;;;;;;;;;;24.30;70.40;;;;;;5237105;28;19924;-89
2021/08/12 00:18:14;;;;;;;;;;;24.30;70.40;;;;;;5212133;28;20393;-90
2021/08/12 00:20:46;;;;;;;;;;;24.30;70.50;;;;;;5183969;28;19928;-88
2021/08/12 00:23:18;;;;;;;;;;;24.20;70.40;;;;;;5206169;28;19925;-89
2021/08/12 00:25:52;;;;;;;;;;;24.20;70.40;;;;;;5206765;28;19933;-91
2021/08/12 00:28:24;;;;;;;;;;;24.20;70.60;;;;;;5199716;28;19932;-91
2021/08/12 00:30:57;;;;;;;;;;;24.20;70.60;;;;;;5219407;28;19928;-90
2021/08/12 00:33:34;;;;;;;;;;;24.10;70.60;;;;;;5206363;28;19928;-91
2021/08/12 00:36:07;;;;;;;;;;;24.10;70.40;;;;;;5210895;28;19929;-90
2021/08/12 00:38:39;;;;;;;;;;;24.10;70.30;;;;;;5208824;28;19939;-91
2021/08/12 00:41:11;;;;;;;;;;;24.10;70.30;;;;;;5214279;28;19924;-89
2021/08/12 00:43:44;;;;;;;;;;;24.10;70.30;;;;;;5204091;28;19933;-89
2021/08/12 00:46:17;;;;;;;;;;;24.10;71.00;;;;;;5209571;28;19935;-89
2021/08/12 00:48:55;;;;;;;;;;;24.00;70.40;;;;;;5207541;28;19928;-90
2021/08/12 00:51:29;;;;;;;;;;;24.00;70.30;;;;;;5219404;28;19932;-90
2021/08/12 00:54:02;;;;;;;;;;;24.00;70.30;;;;;;5200755;28;19944;-90
2021/08/12 00:56:36;;;;;;;;;;;24.00;70.30;;;;;;5199926;28;19932;-89
2021/08/12 00:59:09;;;;;;;;;;;24.00;70.30;;;;;;5195291;28;20313;-90
2021/08/12 01:01:42;;;;;;;;;;;24.00;70.20;;;;;;5204896;28;20328;-89
2021/08/12 01:04:15;;;;;;;;;;;23.90;70.20;;;;;;5190623;28;20377;-89
2021/08/12 01:07:01;;;;;;;;;;;23.90;70.30;;;;;;5221171;28;19932;-89
2021/08/12 01:09:40;;;;;;;;;;;24.00;70.40;;;;;;5206284;28;19933;-90
2021/08/12 01:12:16;;;;;;;;;;;23.90;70.30;;;;;;5218057;28;19929;-89
2021/08/12 01:14:49;;;;;;;;;;;23.90;70.40;;;;;;5189487;28;19932;-89
2021/08/12 01:17:24;;;;;;;;;;;23.90;70.50;;;;;;5212492;28;19929;-89
2021/08/12 01:20:06;;;;;;;;;;;23.90;70.60;;;;;;5202834;28;20366;-91
2021/08/12 01:22:41;;;;;;;;;;;23.80;70.60;;;;;;5231690;28;19928;-90
2021/08/12 01:25:26;;;;;;;;;;;23.90;70.70;;;;;;5199626;28;19925;-89
2021/08/12 01:28:03;;;;;;;;;;;23.80;70.70;;;;;;5216901;28;19929;-90
2021/08/12 01:31:00;;;;;;;;;;;23.80;70.70;;;;;;5229896;28;19933;-88
2021/08/12 01:33:44;;;;;;;;;;;23.80;70.70;;;;;;5181903;28;19925;-88
2021/08/12 01:36:18;;;;;;;;;;;23.80;70.80;;;;;;5214718;28;20417;-88
2021/08/12 01:38:52;;;;;;;;;;;23.80;70.70;;;;;;5185456;28;20318;-89
2021/08/12 01:41:27;;;;;;;;;;;23.80;70.70;;;;;;5188477;28;20458;-89
2021/08/12 01:44:00;;;;;;;;;;;23.80;70.70;;;;;;5215420;28;20382;-88
2021/08/12 01:46:35;;;;;;;;;;;23.80;70.70;;;;;;5215030;28;20077;-89
2021/08/12 01:49:08;;;;;;;;;;;23.80;70.70;;;;;;5218951;28;19929;-89
2021/08/12 01:51:41;;;;;;;;;;;23.80;70.70;;;;;;5224416;28;19929;-88
2021/08/12 01:54:14;;;;;;;;;;;23.70;70.60;;;;;;5201491;28;19932;-87
2021/08/12 01:56:47;;;;;;;;;;;23.70;70.60;;;;;;5222103;28;20065;-87
2021/08/12 01:59:21;;;;;;;;;;;23.70;70.60;;;;;;5190555;28;19939;-89
2021/08/12 02:01:55;;;;;;;;;;;23.70;70.70;;;;;;5203477;28;19925;-89
2021/08/12 02:04:30;;;;;;;;;;;23.70;70.70;;;;;;5206649;28;19939;-88
2021/08/12 02:07:04;;;;;;;;;;;23.70;70.70;;;;;;5251638;28;20225;-88
2021/08/12 02:09:37;;;;;;;;;;;23.70;70.70;;;;;;5200031;28;19932;-87
2021/08/12 02:12:10;;;;;;;;;;;23.70;70.70;;;;;;5217913;28;20332;-89
2021/08/12 02:14:44;;;;;;;;;;;23.60;70.60;;;;;;5215549;28;19925;-88
2021/08/12 02:17:17;;;;;;;;;;;23.60;70.70;;;;;;5217149;28;20405;-88
2021/08/12 02:19:49;;;;;;;;;;;23.60;70.70;;;;;;5188675;28;19925;-90
2021/08/12 02:22:26;;;;;;;;;;;23.60;70.70;;;;;;5214650;28;19935;-91
2021/08/12 02:25:05;;;;;;;;;;;23.60;70.70;;;;;;5196516;28;19925;-90
2021/08/12 02:27:41;;;;;;;;;;;23.60;70.70;;;;;;5203618;28;20267;-90
2021/08/12 02:30:14;;;;;;;;;;;23.60;70.70;;;;;;5201760;28;19932;-90
2021/08/12 02:32:49;;;;;;;;;;;23.60;70.60;;;;;;5219727;28;20571;-91
2021/08/12 02:35:23;;;;;;;;;;;23.60;70.60;;;;;;5202372;28;20127;-91
2021/08/12 02:37:59;;;;;;;;;;;23.60;70.50;;;;;;5201240;28;20293;-91
2021/08/12 02:40:32;;;;;;;;;;;23.60;70.40;;;;;;5184986;28;20328;-90
2021/08/12 02:43:05;;;;;;;;;;;23.60;70.40;;;;;;5216320;28;19928;-89
2021/08/12 02:45:39;;;;;;;;;;;23.50;70.40;;;;;;5204987;28;19924;-91
2021/08/12 02:48:12;;;;;;;;;;;23.50;70.30;;;;;;5217603;28;19929;-90
2021/08/12 02:50:45;;;;;;;;;;;23.50;70.20;;;;;;5233753;28;19925;-90
2021/08/12 02:53:17;;;;;;;;;;;23.50;70.10;;;;;;5203877;28;19928;-90
2021/08/12 02:55:51;;;;;;;;;;;23.50;70.10;;;;;;5217795;28;19933;-90
2021/08/12 02:58:27;;;;;;;;;;;23.50;70.10;;;;;;5187402;28;20321;-90
2021/08/12 03:01:00;;;;;;;;;;;23.50;70.10;;;;;;5214992;28;20212;-89
2021/08/12 03:03:35;;;;;;;;;;;23.50;70.10;;;;;;5196626;28;19939;-90
2021/08/12 03:06:13;;;;;;;;;;;23.40;70.00;;;;;;5228100;28;19928;-89
2021/08/12 03:08:48;;;;;;;;;;;23.40;70.00;;;;;;5180617;28;19936;-89
2021/08/12 03:11:21;;;;;;;;;;;23.50;70.00;;;;;;5197623;28;19940;-89
2021/08/12 03:13:54;;;;;;;;;;;23.50;70.00;;;;;;5206689;28;19939;-90
2021/08/12 03:16:27;;;;;;;;;;;23.40;69.90;;;;;;5244784;28;19924;-90
2021/08/12 03:19:02;;;;;;;;;;;23.40;69.90;;;;;;5197895;28;20098;-88
2021/08/12 03:21:34;;;;;;;;;;;23.40;70.00;;;;;;5186404;28;19929;-89
2021/08/12 03:24:07;;;;;;;;;;;23.40;70.60;;;;;;5200662;28;19956;-92
2021/08/12 03:26:39;;;;;;;;;;;23.40;70.00;;;;;;5205484;28;19924;-89
2021/08/12 03:29:12;;;;;;;;;;;23.40;70.00;;;;;;5196577;28;19935;-89
2021/08/12 03:31:48;;;;;;;;;;;23.40;70.00;;;;;;5223418;28;20586;-91
2021/08/12 03:34:21;;;;;;;;;;;23.40;69.90;;;;;;5209752;28;20326;-92
2021/08/12 03:36:54;;;;;;;;;;;23.40;69.90;;;;;;5212163;28;19925;-91
2021/08/12 03:39:26;;;;;;;;;;;23.40;69.80;;;;;;5214888;28;19945;-94
2021/08/12 03:41:59;;;;;;;;;;;23.40;69.80;;;;;;5213339;28;19925;-93
2021/08/12 03:44:32;;;;;;;;;;;23.40;69.80;;;;;;5227090;28;19929;-93
2021/08/12 03:47:09;;;;;;;;;;;23.40;69.70;;;;;;5227226;28;19947;-93
2021/08/12 03:49:42;;;;;;;;;;;23.40;69.70;;;;;;5215614;28;20274;-92
2021/08/12 03:52:16;;;;;;;;;;;23.40;69.70;;;;;;5230099;28;19932;-93
2021/08/12 03:54:49;;;;;;;;;;;23.40;69.60;;;;;;5198287;28;19931;-93
2021/08/12 03:57:22;;;;;;;;;;;23.40;69.50;;;;;;5224376;28;19932;-92
2021/08/12 03:59:55;;;;;;;;;;;23.40;69.50;;;;;;5201285;28;19924;-93
2021/08/12 04:02:28;;;;;;;;;;;23.30;69.40;;;;;;5232605;28;19924;-92
2021/08/12 04:05:02;;;;;;;;;;;23.30;70.10;;;;;;5228274;28;19929;-90
2021/08/12 04:07:36;;;;;;;;;;;23.30;69.40;;;;;;5229194;28;19929;-93
2021/08/12 04:10:09;;;;;;;;;;;23.30;69.30;;;;;;5213916;28;20382;-92
2021/08/12 04:12:42;;;;;;;;;;;23.30;69.90;;;;;;5242837;28;19933;-92
2021/08/12 04:15:14;;;;;;;;;;;23.30;69.90;;;;;;5206920;28;19932;-93
2021/08/12 04:17:47;;;;;;;;;;;23.30;69.30;;;;;;5196654;28;19925;-93
2021/08/12 04:20:21;;;;;;;;;;;23.30;69.30;;;;;;5217757;28;19931;-93
2021/08/12 04:22:54;;;;;;;;;;;23.30;69.30;;;;;;5217765;28;19924;-93
2021/08/12 04:25:26;;;;;;;;;;;23.30;69.30;;;;;;5217816;28;19951;-93
2021/08/12 04:27:59;;;;;;;;;;;23.30;69.30;;;;;;5217757;28;19925;-93
2021/08/12 04:30:33;;;;;;;;;;;23.30;69.30;;;;;;5195118;28;19925;-94
2021/08/12 04:33:06;;;;;;;;;;;23.30;69.90;;;;;;5213628;28;19929;-93
2021/08/12 04:35:39;;;;;;;;;;;23.30;69.20;;;;;;5197395;28;20119;-92
2021/08/12 04:38:12;;;;;;;;;;;23.20;69.20;;;;;;5191763;28;19929;-92
2021/08/12 04:40:44;;;;;;;;;;;23.30;69.30;;;;;;5211231;28;19924;-91
2021/08/12 04:43:17;;;;;;;;;;;23.20;69.20;;;;;;5225281;28;19947;-92
2021/08/12 04:45:50;;;;;;;;;;;23.20;69.30;;;;;;5241402;28;19932;-93
2021/08/12 04:48:22;;;;;;;;;;;23.20;69.30;;;;;;5192145;28;20657;-92
2021/08/12 04:50:55;;;;;;;;;;;23.20;69.30;;;;;;5191148;28;19928;-94
2021/08/12 04:53:28;;;;;;;;;;;23.20;69.30;;;;;;5215259;28;19932;-93
2021/08/12 04:56:02;;;;;;;;;;;23.20;69.30;;;;;;5212623;28;19935;-93
2021/08/12 04:58:36;;;;;;;;;;;23.20;69.40;;;;;;5257604;28;19924;-92
2021/08/12 05:01:09;;;;;;;;;;;23.20;69.40;;;;;;5212665;28;19925;-91
2021/08/12 05:03:42;;;;;;;;;;;23.20;69.50;;;;;;5213506;28;19933;-93
2021/08/12 05:06:15;;;;;;;;;;;23.20;69.60;;;;;;5209286;28;19932;-92
2021/08/12 05:08:48;;;;;;;;;;;23.20;69.70;;;;;;5207903;28;19925;-93
2021/08/12 05:11:20;;;;;;;;;;;23.20;69.90;;;;;;5191187;28;19946;-91
2021/08/12 05:13:53;;;;;;;;;;;23.20;70.00;;;;;;5237483;28;19933;-92
2021/08/12 05:16:26;;;;;;;;;;;23.20;70.10;;;;;;5202741;28;19931;-93
2021/08/12 05:18:58;;;;;;;;;;;23.20;70.20;;;;;;5188598;28;20003;-94
2021/08/12 05:21:31;;;;;;;;;;;23.30;70.50;;;;;;5214662;28;19928;-92
2021/08/12 05:24:04;;;;;;;;;;;23.30;70.80;;;;;;5189381;28;19936;-93
2021/08/12 05:26:36;;;;;;;;;;;23.30;70.80;;;;;;5207735;28;19932;-92
2021/08/12 05:29:09;;;;;;;;;;;23.30;70.90;;;;;;5191383;28;19928;-93
2021/08/12 05:31:42;;;;;;;;;;;23.30;70.70;;;;;;5193542;28;19928;-93
2021/08/12 05:34:15;;;;;;;;;;;23.30;70.80;;;;;;5222979;28;19928;-93
2021/08/12 05:36:47;;;;;;;;;;;23.30;70.70;;;;;;5221838;28;19928;-92
2021/08/12 05:39:20;;;;;;;;;;;23.30;70.90;;;;;;5209738;28;19928;-93
2021/08/12 05:41:53;;;;;;;;;;;23.30;70.80;;;;;;5194121;28;20234;-93
2021/08/12 05:44:25;;;;;;;;;;;23.30;70.90;;;;;;5222653;28;19932;-91
2021/08/12 05:46:57;;;;;;;;;;;23.30;70.60;;;;;;5226784;28;19924;-91
2021/08/12 05:49:30;;;;;;;;;;;23.30;70.70;;;;;;5201511;28;19928;-93
2021/08/12 05:52:03;;;;;;;;;;;23.40;70.80;;;;;;5205591;28;19940;-92
2021/08/12 05:54:36;;;;;;;;;;;23.40;70.90;;;;;;5190690;28;19931;-91
2021/08/12 05:57:10;;;;;;;;;;;23.40;71.00;;;;;;5223920;28;19935;-92
2021/08/12 05:59:42;;;;;;;;;;;23.40;71.20;;;;;;5203135;28;19933;-93
2021/08/12 06:02:15;;;;;;;;;;;23.40;71.40;;;;;;5221643;28;19947;-92
2021/08/12 06:04:49;;;;;;;;;;;23.40;71.50;;;;;;5189670;28;19928;-92
2021/08/12 06:07:22;;;;;;;;;;;23.40;71.60;;;;;;5206448;28;20290;-94
2021/08/12 06:09:54;;;;;;;;;;;23.30;71.60;;;;;;5201711;28;19928;-93
2021/08/12 06:12:27;;;;;;;;;;;23.40;71.70;;;;;;5213290;28;20410;-92
2021/08/12 06:15:00;;;;;;;;;;;23.40;71.70;;;;;;5216301;28;19928;-92
2021/08/12 06:17:37;;;;;;;;;;;23.40;71.80;;;;;;5206261;28;19933;-92
2021/08/12 06:20:10;;;;;;;;;;;23.40;72.40;;;;;;5223907;28;19935;-92
2021/08/12 06:22:43;;;;;;;;;;;23.40;71.70;;;;;;5215947;28;19933;-92
2021/08/12 06:25:16;;;;;;;;;;;23.40;71.60;;;;;;5219444;28;20039;-91
2021/08/12 06:27:49;;;;;;;;;;;23.40;71.60;;;;;;5210327;28;19936;-90
2021/08/12 06:30:22;;;;;;;;;;;23.40;71.60;;;;;;5185930;28;20591;-92
2021/08/12 06:32:54;;;;;;;;;;;23.40;71.60;;;;;;5216661;28;19929;-92
2021/08/12 06:35:31;;;;;;;;;;;23.40;71.60;;;;;;5201245;28;19929;-92
2021/08/12 06:38:05;;;;;;;;;;;23.40;71.70;;;;;;5198771;28;20089;-91
2021/08/12 06:40:37;;;;;;;;;;;23.40;71.60;;;;;;5194008;28;20322;-92
2021/08/12 06:43:11;;;;;;;;;;;23.40;71.60;;;;;;5191873;28;19929;-92
2021/08/12 06:46:05;;;;;;;;;;;23.40;71.70;;;;;;5196027;28;19940;-91
2021/08/12 06:48:40;;;;;;;;;;;23.40;71.90;;;;;;5200008;28;20300;-94
2021/08/12 06:51:30;;;;;;;;;;;23.40;71.80;;;;;;5209949;28;19924;-91
2021/08/12 06:54:03;;;;;;;;;;;23.40;71.80;;;;;;5189393;28;19940;-91
2021/08/12 06:56:38;;;;;;;;;;;23.40;71.80;;;;;;5199637;28;19924;-90
2021/08/12 06:59:10;;;;;;;;;;;23.40;71.70;;;;;;5198535;28;19933;-91
2021/08/12 07:01:43;;;;;;;;;;;23.40;71.70;;;;;;5213158;28;19928;-90
2021/08/12 07:04:17;;;;;;;;;;;23.50;71.80;;;;;;5199473;28;19924;-92
2021/08/12 07:06:53;;;;;;;;;;;23.50;71.80;;;;;;5213281;28;19929;-91
2021/08/12 07:09:25;;;;;;;;;;;23.50;71.70;;;;;;5230088;28;19928;-91
2021/08/12 07:11:59;;;;;;;;;;;23.50;71.80;;;;;;5217825;28;19936;-92
2021/08/12 07:14:33;;;;;;;;;;;23.50;71.70;;;;;;5217460;28;19928;-90
2021/08/12 07:17:06;;;;;;;;;;;23.50;71.80;;;;;;5204994;28;19925;-92
2021/08/12 07:19:39;;;;;;;;;;;23.50;71.80;;;;;;5192676;28;19925;-90
2021/08/12 07:22:13;;;;;;;;;;;23.50;71.80;;;;;;5201116;28;20294;-90
2021/08/12 07:24:46;;;;;;;;;;;23.50;71.70;;;;;;5220699;28;20269;-90
2021/08/12 07:27:18;;;;;;;;;;;23.50;71.80;;;;;;5205669;28;19936;-90
2021/08/12 07:29:52;;;;;;;;;;;23.50;71.70;;;;;;5236511;28;19929;-91
2021/08/12 07:32:25;;;;;;;;;;;23.50;71.80;;;;;;5214118;28;20085;-90
2021/08/12 07:34:59;;;;;;;;;;;23.50;71.80;;;;;;5203554;28;19940;-91
2021/08/12 07:37:31;;;;;;;;;;;23.50;71.90;;;;;;5214933;28;19931;-90
2021/08/12 07:40:04;;;;;;;;;;;23.50;71.90;;;;;;5210446;28;19937;-92
2021/08/12 07:42:38;;;;;;;;;;;23.50;72.00;;;;;;5215203;28;19925;-93
2021/08/12 07:45:10;;;;;;;;;;;23.50;72.00;;;;;;5196932;28;19925;-91
2021/08/12 07:47:46;;;;;;;;;;;23.60;72.10;;;;;;5250601;28;19929;-93
2021/08/12 07:50:21;;;;;;;;;;;23.50;72.70;;;;;;5205497;28;19928;-94
2021/08/12 07:52:57;;;;;;;;;;;23.60;72.10;;;;;;5215096;28;19928;-94
2021/08/12 07:55:37;;;;;;;;;;;23.60;72.10;;;;;;5234125;28;19931;-93
2021/08/12 07:58:09;;;;;;;;;;;23.60;72.10;;;;;;5200506;28;19925;-91
2021/08/12 08:00:44;;;;;;;;;;;23.60;72.00;;;;;;5224399;28;19936;-91
2021/08/12 08:03:17;;;;;;;;;;;23.60;72.10;;;;;;5206703;28;19928;-91
2021/08/12 08:05:49;;;;;;;;;;;23.60;72.10;;;;;;5224509;28;19932;-91
2021/08/12 08:08:22;;;;;;;;;;;23.60;72.10;;;;;;5199008;28;19932;-91
2021/08/12 08:10:55;;;;;;;;;;;23.60;72.10;;;;;;5228564;28;19929;-92
2021/08/12 08:13:27;;;;;;;;;;;23.60;72.10;;;;;;5241756;28;19924;-92
2021/08/12 08:16:00;;;;;;;;;;;23.60;72.10;;;;;;5195925;28;19932;-92
2021/08/12 08:18:32;;;;;;;;;;;23.60;72.10;;;;;;5187767;28;19925;-92
2021/08/12 08:21:05;;;;;;;;;;;23.60;72.20;;;;;;5197747;28;20601;-91
2021/08/12 08:23:38;;;;;;;;;;;23.60;72.20;;;;;;5204565;28;19925;-92
2021/08/12 08:26:11;;;;;;;;;;;23.60;72.20;;;;;;5192125;28;20374;-92
2021/08/12 08:29:09;;;;;;;;;;;23.60;72.40;;;;;;5222284;28;19932;-92
2021/08/12 08:32:25;;;;;;;;;;;23.60;72.40;;;;;;5215423;28;19929;-94
2021/08/12 08:35:00;;;;;;;;;;;23.60;72.50;;;;;;5218716;28;19924;-91
2021/08/12 08:37:42;;;;;;;;;;;23.60;72.60;;;;;;5193609;28;19929;-91
2021/08/12 08:40:15;;;;;;;;;;;23.70;72.80;;;;;;5222710;28;19929;-92
2021/08/12 08:42:48;;;;;;;;;;;23.70;72.90;;;;;;5218838;28;19939;-93
2021/08/12 08:45:26;;;;;;;;;;;23.70;72.90;;;;;;5190885;28;19928;-91
2021/08/12 08:48:00;;;;;;;;;;;23.70;72.90;;;;;;5228957;28;20098;-93
2021/08/12 08:50:35;;;;;;;;;;;23.70;72.90;;;;;;5211727;28;19925;-93
2021/08/12 08:53:14;;;;;;;;;;;23.70;72.90;;;;;;5225878;28;20275;-90
2021/08/12 08:55:46;;;;;;;;;;;23.70;72.80;;;;;;5223031;28;19931;-93
2021/08/12 08:58:20;;;;;;;;;;;23.70;73.00;;;;;;5208876;28;19924;-92
2021/08/12 09:00:53;;;;;;;;;;;23.70;73.70;;;;;;5209266;28;19931;-90
2021/08/12 09:03:25;;;;;;;;;;;23.80;74.00;;;;;;5206878;28;19928;-93
2021/08/12 09:05:58;;;;;;;;;;;23.90;73.30;;;;;;5191336;28;19924;-90
2021/08/12 09:08:33;;;;;;;;;;;23.90;72.90;;;;;;5211005;28;20302;-92
2021/08/12 09:11:06;;;;;;;;;;;24.10;72.80;;;;;;5230066;28;19931;-94
2021/08/12 09:13:40;;;;;;;;;;;24.20;72.30;;;;;;5206829;28;19925;-90
2021/08/12 09:16:29;;;;;;;;;;;24.30;72.40;;;;;;5239299;28;19951;-92
2021/08/12 09:19:22;;;;;;;;;;;24.40;71.70;;;;;;5221360;28;19924;-91
2021/08/12 09:21:57;;;;;;;;;;;24.50;71.40;;;;;;5213908;28;20389;-92
2021/08/12 09:24:47;;;;;;;;;;;24.60;71.00;;;;;;5264985;28;20396;-92
2021/08/12 09:27:20;;;;;;;;;;;24.70;70.80;;;;;;5227864;28;19924;-94
2021/08/12 09:30:28;;;;;;;;;;;24.80;70.40;;;;;;5217472;28;19931;-92
2021/08/12 09:33:01;;;;;;;;;;;25.00;70.50;;;;;;5149096;28;19926;-91
2021/08/12 09:35:34;;;;;;;;;;;25.10;69.90;;;;;;5228735;28;19928;-93
2021/08/12 09:38:08;;;;;;;;;;;25.10;69.70;;;;;;5198275;28;19930;-93
2021/08/12 09:40:43;;;;;;;;;;;25.20;69.70;;;;;;5224255;28;20302;-92
2021/08/12 09:43:16;;;;;;;;;;;25.30;69.50;;;;;;5218271;28;20305;-90
2021/08/12 09:45:50;;;;;;;;;;;25.40;69.30;;;;;;5210726;28;19925;-94
2021/08/12 09:48:23;;;;;;;;;;;25.40;69.00;;;;;;5201066;28;19933;-93
2021/08/12 09:51:06;;;;;;;;;;;25.50;69.50;;;;;;5211655;28;19929;-92
2021/08/12 09:53:39;;;;;;;;;;;25.60;69.00;;;;;;5198933;28;20374;-92
2021/08/12 09:56:12;;;;;;;;;;;25.60;68.70;;;;;;5225843;28;19925;-93
2021/08/12 09:58:45;;;;;;;;;;;25.60;68.50;;;;;;5205336;28;19924;-92
2021/08/12 10:01:18;;;;;;;;;;;25.70;68.30;;;;;;5211401;28;19932;-95
2021/08/12 10:03:54;;;;;;;;;;;25.80;68.20;;;;;;5182090;28;19994;-91
2021/08/12 10:06:27;;;;;;;;;;;25.80;68.10;;;;;;5166043;28;19937;-88
2021/08/12 10:09:13;;;;;;;;;;;25.90;68.00;;;;;;5199711;28;20469;-91
2021/08/12 10:11:46;;;;;;;;;;;26.00;68.00;;;;;;5214581;28;19935;-90
2021/08/12 10:14:18;;;;;;;;;;;26.10;67.90;;;;;;5191455;28;19929;-91
2021/08/12 10:16:51;;;;;;;;;;;26.20;67.80;;;;;;5178811;28;19929;-91
2021/08/12 10:19:23;;;;;;;;;;;26.20;67.60;;;;;;5208902;28;20409;-89
2021/08/12 10:21:56;;;;;;;;;;;26.30;67.30;;;;;;5211368;28;19932;-90
2021/08/12 10:24:29;;;;;;;;;;;26.40;67.10;;;;;;5184317;28;20287;-90
2021/08/12 10:27:01;;;;;;;;;;;26.50;66.60;;;;;;5200808;28;19941;-89
2021/08/12 10:29:35;;;;;;;;;;;26.50;66.50;;;;;;5184342;28;20789;-90
2021/08/12 10:32:07;;;;;;;;;;;26.60;66.40;;;;;;5200055;28;19929;-89
2021/08/12 10:34:40;;;;;;;;;;;26.60;66.90;;;;;;5187570;28;19932;-89
2021/08/12 10:37:12;;;;;;;;;;;26.60;66.10;;;;;;5221611;28;19929;-88
2021/08/12 10:39:45;;;;;;;;;;;26.60;65.90;;;;;;5201321;28;19936;-91
2021/08/12 10:42:18;;;;;;;;;;;26.60;65.80;;;;;;5206737;28;19925;-89
2021/08/12 10:44:50;;;;;;;;;;;26.60;65.70;;;;;;5195358;28;19924;-91
2021/08/12 10:47:42;;;;;;;;;;;26.60;65.60;;;;;;5199487;28;19939;-91
2021/08/12 10:50:24;;;;;;;;;;;26.70;65.20;;;;;;5203588;28;19928;-89
2021/08/12 10:53:11;;;;;;;;;;;26.60;65.20;;;;;;5185634;28;19929;-91
2021/08/12 10:55:44;;;;;;;;;;;26.60;65.00;;;;;;5205924;28;19928;-90
2021/08/12 10:58:23;;;;;;;;;;;26.70;65.20;;;;;;5190213;28;19980;-90
2021/08/12 11:00:56;;;;;;;;;;;26.70;65.20;;;;;;5171317;28;19928;-89
2021/08/12 11:03:31;;;;;;;;;;;26.60;65.60;;;;;;5214952;28;20500;-89
2021/08/12 11:06:04;;;;;;;;;;;26.70;65.80;;;;;;5220342;28;19928;-88
2021/08/12 11:08:59;;;;;;;;;;;26.70;65.60;;;;;;5178248;28;19928;-89
2021/08/12 11:11:31;;;;;;;;;;;26.70;65.50;;;;;;5180964;28;19936;-88
2021/08/12 11:14:08;;;;;;;;;;;26.70;65.50;;;;;;5199072;28;20259;-90
2021/08/12 11:16:40;;;;;;;;;;;26.70;65.60;;;;;;5209531;28;19933;-91
2021/08/12 11:19:22;;;;;;;;;;;26.70;65.70;;;;;;5190315;28;20818;-88
2021/08/12 11:21:55;;;;;;;;;;;26.70;66.00;;;;;;5190775;28;19936;-92
2021/08/12 11:24:27;;;;;;;;;;;26.70;66.20;;;;;;5213017;28;19928;-89
2021/08/12 11:26:59;;;;;;;;;;;26.70;66.20;;;;;;5204328;28;19928;-90
2021/08/12 11:29:34;;;;;;;;;;;26.70;66.20;;;;;;5204362;28;19933;-89
2021/08/12 11:32:10;;;;;;;;;;;26.70;66.20;;;;;;5168691;28;19929;-90
2021/08/12 11:34:54;;;;;;;;;;;26.70;66.30;;;;;;5193424;28;19928;-90
2021/08/12 11:37:28;;;;;;;;;;;26.70;66.30;;;;;;5218834;28;20187;-89
2021/08/12 11:40:03;;;;;;;;;;;26.70;66.30;;;;;;5188092;28;19929;-89
2021/08/12 11:42:37;;;;;;;;;;;26.70;66.40;;;;;;5217235;28;19933;-90
2021/08/12 11:45:11;;;;;;;;;;;26.70;66.50;;;;;;5170437;28;19924;-89
2021/08/12 11:47:44;;;;;;;;;;;26.80;66.80;;;;;;5219325;28;19933;-89
2021/08/12 11:50:16;;;;;;;;;;;26.80;67.00;;;;;;5193630;28;19963;-88
2021/08/12 11:52:49;;;;;;;;;;;26.80;67.40;;;;;;5193794;28;19932;-88
2021/08/12 11:55:22;;;;;;;;;;;26.80;67.40;;;;;;5186067;28;19937;-89
2021/08/12 11:57:56;;;;;;;;;;;26.80;67.20;;;;;;5206929;28;19928;-91
2021/08/12 12:00:30;;;;;;;;;;;26.80;67.20;;;;;;5221585;28;19929;-91
2021/08/12 12:03:04;;;;;;;;;;;26.80;67.10;;;;;;5194420;28;19928;-91
2021/08/12 12:05:37;;;;;;;;;;;26.80;67.10;;;;;;5200217;28;20325;-91
2021/08/12 12:08:10;;;;;;;;;;;26.80;67.00;;;;;;5207725;28;20313;-88
2021/08/12 12:10:44;;;;;;;;;;;26.80;67.20;;;;;;5207937;28;19940;-89
2021/08/12 12:13:20;;;;;;;;;;;26.80;67.20;;;;;;5223140;28;19932;-90
2021/08/12 12:15:53;;;;;;;;;;;26.80;67.10;;;;;;5206264;28;19928;-91
2021/08/12 12:18:34;;;;;;;;;;;26.90;67.10;;;;;;5204746;28;19932;-90
2021/08/12 12:21:14;;;;;;;;;;;26.90;67.00;;;;;;5191936;28;19928;-87
2021/08/12 12:23:48;;;;;;;;;;;26.90;66.90;;;;;;5186769;28;20006;-88
2021/08/12 12:26:23;;;;;;;;;;;26.90;66.80;;;;;;5202887;28;19936;-88
2021/08/12 12:28:55;;;;;;;;;;;26.90;66.80;;;;;;5194949;28;19925;-89
2021/08/12 12:31:28;;;;;;;;;;;26.90;66.60;;;;;;5170774;28;19940;-90
2021/08/12 12:34:04;;;;;;;;;;;26.90;66.50;;;;;;5213377;28;19935;-92
2021/08/12 12:36:37;;;;;;;;;;;26.90;66.40;;;;;;5207292;28;19925;-91
2021/08/12 12:39:10;;;;;;;;;;;27.00;66.30;;;;;;5210474;28;19929;-89
2021/08/12 12:41:43;;;;;;;;;;;27.00;66.20;;;;;;5215841;28;19951;-94
2021/08/12 12:44:15;;;;;;;;;;;27.00;66.20;;;;;;5202609;28;19925;-90
2021/08/12 12:46:48;;;;;;;;;;;27.00;66.10;;;;;;5210181;28;19940;-90
2021/08/12 12:49:24;;;;;;;;;;;27.00;66.20;;;;;;5198688;28;19929;-92
2021/08/12 12:52:07;;;;;;;;;;;27.00;66.40;;;;;;5223652;28;19931;-88
2021/08/12 12:54:40;;;;;;;;;;;27.10;66.70;;;;;;5208544;28;20047;-91
2021/08/12 12:57:13;;;;;;;;;;;27.10;66.60;;;;;;5230422;28;19924;-91
2021/08/12 12:59:52;;;;;;;;;;;27.10;66.70;;;;;;5196931;28;19936;-87
2021/08/12 13:02:24;;;;;;;;;;;27.20;67.00;;;;;;5211752;28;19932;-87
2021/08/12 13:04:57;;;;;;;;;;;27.20;66.90;;;;;;5200144;28;19932;-86
2021/08/12 13:07:30;;;;;;;;;;;27.30;66.70;;;;;;5203843;28;19936;-87
2021/08/12 13:10:14;;;;;;;;;;;27.20;66.30;;;;;;5206200;28;19929;-85
2021/08/12 13:12:57;;;;;;;;;;;27.30;66.20;;;;;;5204335;28;19935;-88
2021/08/12 13:15:29;;;;;;;;;;;27.20;65.20;;;;;;5189159;28;19930;-87
2021/08/12 13:18:03;;;;;;;;;;;27.20;65.90;;;;;;5211823;28;20365;-87
2021/08/12 13:20:40;;;;;;;;;;;27.20;65.60;;;;;;5189055;28;19928;-86
2021/08/12 13:23:13;;;;;;;;;;;27.10;64.70;;;;;;5221355;28;19929;-87
2021/08/12 13:25:54;;;;;;;;;;;27.10;65.40;;;;;;5187813;28;19933;-87
2021/08/12 13:28:34;;;;;;;;;;;27.10;65.00;;;;;;5197941;28;20284;-86
2021/08/12 13:31:17;;;;;;;;;;;27.00;65.00;;;;;;5197322;28;19932;-88
2021/08/12 13:33:53;;;;;;;;;;;27.00;65.20;;;;;;5200720;28;21106;-87
2021/08/12 13:36:25;;;;;;;;;;;26.90;65.00;;;;;;5216379;28;20088;-87
2021/08/12 13:38:59;;;;;;;;;;;26.90;65.20;;;;;;5213566;28;19935;-86
2021/08/12 13:41:41;;;;;;;;;;;26.80;65.40;;;;;;5211816;28;19924;-87
2021/08/12 13:44:15;;;;;;;;;;;26.80;65.60;;;;;;5217103;28;19932;-86
2021/08/12 13:46:47;;;;;;;;;;;26.80;65.40;;;;;;5196895;28;19928;-87
2021/08/12 13:49:21;;;;;;;;;;;26.80;65.60;;;;;;5208164;28;19925;-87
2021/08/12 13:51:54;;;;;;;;;;;26.70;65.60;;;;;;5205541;28;19939;-85
2021/08/12 13:54:27;;;;;;;;;;;26.70;64.80;;;;;;5210904;28;19927;-87
2021/08/12 13:56:59;;;;;;;;;;;26.70;65.50;;;;;;5183186;28;19932;-84
2021/08/12 13:59:32;;;;;;;;;;;26.70;65.50;;;;;;5221199;28;19928;-86
2021/08/12 14:02:04;;;;;;;;;;;26.60;65.20;;;;;;5203182;28;20314;-86
2021/08/12 14:04:36;;;;;;;;;;;26.60;65.30;;;;;;5193467;28;19929;-87
2021/08/12 14:07:09;;;;;;;;;;;26.60;65.30;;;;;;5200857;28;19932;-88
2021/08/12 14:09:41;;;;;;;;;;;26.60;65.70;;;;;;5208250;28;20286;-86
2021/08/12 14:12:14;;;;;;;;;;;26.60;65.30;;;;;;5227023;28;20032;-84
2021/08/12 14:14:46;;;;;;;;;;;26.50;65.50;;;;;;5197669;28;19928;-86
2021/08/12 14:17:19;;;;;;;;;;;26.50;65.50;;;;;;5176749;28;19929;-87
2021/08/12 14:19:51;;;;;;;;;;;26.50;65.60;;;;;;5207708;28;20300;-82
2021/08/12 14:22:24;;;;;;;;;;;26.50;65.50;;;;;;5224390;28;19932;-85
2021/08/12 14:24:57;;;;;;;;;;;26.50;65.60;;;;;;5221458;28;19931;-85
2021/08/12 14:27:29;;;;;;;;;;;26.50;65.40;;;;;;5223468;28;20366;-85
2021/08/12 14:30:02;;;;;;;;;;;26.50;65.50;;;;;;5212032;28;19936;-88
2021/08/12 14:32:34;;;;;;;;;;;26.40;65.50;;;;;;5183036;28;20387;-86
2021/08/12 14:35:07;;;;;;;;;;;26.40;65.60;;;;;;5224032;28;19940;-87
2021/08/12 14:37:39;;;;;;;;;;;26.40;65.80;;;;;;5194358;28;19965;-86
2021/08/12 14:40:13;;;;;;;;;;;26.40;66.00;;;;;;5207894;28;19925;-88
2021/08/12 14:42:45;;;;;;;;;;;26.40;66.10;;;;;;5207970;28;19925;-86
2021/08/12 14:45:18;;;;;;;;;;;26.30;66.20;;;;;;5243302;28;22456;-87
2021/08/12 14:47:51;;;;;;;;;;;26.30;66.20;;;;;;5224090;28;19928;-87
2021/08/12 14:50:23;;;;;;;;;;;26.20;66.70;;;;;;5237155;28;19933;-88
2021/08/12 14:52:55;;;;;;;;;;;26.20;66.40;;;;;;5241215;28;19935;-89
2021/08/12 14:55:28;;;;;;;;;;;26.20;66.60;;;;;;5206553;28;19932;-87
2021/08/12 14:58:00;;;;;;;;;;;26.20;66.60;;;;;;5212513;28;20103;-87